Time;durP1;ratioP1;P1;durP2;ratioP2;P2;SDS_P1;SDS_P2;PMS_P1;PMS_P2;Temp;Humidity;BMP_temperature;BMP_pressure;BME280_temperature;BME280_humidity;BME280_pressure;Samples;Min_cycle;Max_cycle;Signal;HPM_P1;HPM_P2
2023/09/24 00:01:44;;;;;;;3.55;2.20;;;;;;;;;;5106495;28;20040;-60
2023/09/24 00:04:11;;;;;;;3.47;2.50;;;;;;;;;;5106193;28;20023;-60
2023/09/24 00:06:37;;;;;;;3.85;2.10;;;;;;;;;;5106784;28;20122;-61
2023/09/24 00:09:03;;;;;;;4.88;2.42;;;;;;;;;;5088720;28;20059;-61
2023/09/24 00:11:29;;;;;;;4.03;2.63;;;;;;;;;;5103953;28;20036;-61
2023/09/24 00:13:55;;;;;;;5.13;2.50;;;;;;;;;;5087922;28;20047;-61
2023/09/24 00:16:22;;;;;;;2.85;2.55;;;;;;;;;;5106776;28;20058;-61
2023/09/24 00:18:48;;;;;;;5.85;2.63;;;;;;;;;;5103964;28;20406;-61
2023/09/24 00:21:14;;;;;;;4.18;2.72;;;;;;;;;;5102354;28;20031;-61
2023/09/24 00:23:40;;;;;;;6.80;2.78;;;;;;;;;;5104335;28;20031;-61
2023/09/24 00:26:06;;;;;;;4.55;3.15;;;;;;;;;;5102934;28;20394;-61
2023/09/24 00:28:32;;;;;;;4.63;2.70;;;;;;;;;;5103059;28;20035;-61
2023/09/24 00:30:58;;;;;;;4.45;2.67;;;;;;;;;;5106607;28;20044;-61
2023/09/24 00:33:25;;;;;;;5.47;3.10;;;;;;;;;;5093578;28;20035;-61
2023/09/24 00:35:51;;;;;;;4.00;2.70;;;;;;;;;;5088398;28;20042;-61
2023/09/24 00:38:18;;;;;;;6.28;3.00;;;;;;;;;;5087979;28;20043;-61
2023/09/24 00:40:44;;;;;;;4.65;2.60;;;;;;;;;;5105601;28;20557;-61
2023/09/24 00:43:33;;;;;;;6.95;2.78;;;;;;;;;;5101257;28;20030;-61
2023/09/24 00:46:03;;;;;;;5.75;3.60;;;;;;;;;;5104320;28;20052;-60
2023/09/24 00:48:31;;;;;;;4.15;2.80;;;;;;;;;;5104872;28;20024;-61
2023/09/24 00:50:58;;;;;;;3.50;2.67;;;;;;;;;;5087668;28;20044;-61
2023/09/24 00:53:29;;;;;;;3.15;2.28;;;;;;;;;;5105637;28;20874;-61
2023/09/24 00:55:56;;;;;;;4.00;2.35;;;;;;;;;;5085505;28;20100;-61
2023/09/24 00:58:26;;;;;;;5.22;2.15;;;;;;;;;;5084436;28;20222;-61
2023/09/24 01:00:53;;;;;;;3.83;2.30;;;;;;;;;;5104730;28;20039;-60
2023/09/24 01:03:22;;;;;;;4.70;1.92;;;;;;;;;;5088385;28;20230;-60
2023/09/24 01:05:53;;;;;;;3.17;2.10;;;;;;;;;;5106385;28;20115;-60
2023/09/24 01:08:21;;;;;;;3.83;2.20;;;;;;;;;;5105846;28;20039;-61
2023/09/24 01:10:48;;;;;;;4.10;2.78;;;;;;;;;;5105666;28;20411;-60
2023/09/24 01:13:20;;;;;;;7.75;5.55;;;;;;;;;;5068338;28;20047;-60
2023/09/24 01:15:50;;;;;;;8.93;6.97;;;;;;;;;;5101085;28;20039;-60
2023/09/24 01:18:17;;;;;;;8.23;4.78;;;;;;;;;;5085683;28;20039;-61
2023/09/24 01:20:44;;;;;;;5.05;3.35;;;;;;;;;;5103533;28;20032;-60
2023/09/24 01:23:14;;;;;;;3.83;2.97;;;;;;;;;;5101687;28;20039;-60
2023/09/24 01:25:42;;;;;;;4.18;2.65;;;;;;;;;;5108130;28;20398;-59
2023/09/24 01:28:08;;;;;;;4.88;2.50;;;;;;;;;;5099101;28;20039;-60
2023/09/24 01:30:35;;;;;;;5.60;2.10;;;;;;;;;;5091293;28;20050;-59
2023/09/24 01:33:01;;;;;;;3.92;1.90;;;;;;;;;;5085688;28;20044;-60
2023/09/24 01:35:28;;;;;;;4.53;2.13;;;;;;;;;;5103849;28;20054;-59
2023/09/24 01:37:59;;;;;;;3.38;2.20;;;;;;;;;;5103586;28;20043;-59
2023/09/24 01:40:27;;;;;;;2.75;1.73;;;;;;;;;;5108131;28;20395;-59
2023/09/24 01:43:00;;;;;;;3.50;2.22;;;;;;;;;;5100097;28;20027;-60
2023/09/24 01:45:29;;;;;;;3.67;1.95;;;;;;;;;;5073024;28;20043;-60
2023/09/24 01:47:56;;;;;;;3.47;1.83;;;;;;;;;;5106473;28;20059;-60
2023/09/24 01:50:27;;;;;;;6.00;1.80;;;;;;;;;;5073824;28;20047;-59
2023/09/24 01:52:54;;;;;;;2.42;1.83;;;;;;;;;;5104899;28;20039;-60
2023/09/24 01:55:21;;;;;;;3.35;1.75;;;;;;;;;;5104192;28;20430;-59
2023/09/24 01:57:47;;;;;;;4.25;1.80;;;;;;;;;;5089473;28;20032;-60
2023/09/24 02:00:37;;;;;;;2.97;1.77;;;;;;;;;;5089045;28;20050;-59
2023/09/24 02:03:05;;;;;;;2.25;1.75;;;;;;;;;;5103159;28;20042;-59
2023/09/24 02:05:32;;;;;;;3.90;1.70;;;;;;;;;;5084877;28;20039;-59
2023/09/24 02:08:00;;;;;;;2.80;1.90;;;;;;;;;;5105307;28;20138;-59
2023/09/24 02:10:27;;;;;;;3.55;1.60;;;;;;;;;;5105438;28;20410;-59
2023/09/24 02:12:55;;;;;;;2.58;1.90;;;;;;;;;;5081117;28;20407;-58
2023/09/24 02:15:23;;;;;;;3.55;1.90;;;;;;;;;;5087727;28;20502;-59
2023/09/24 02:17:49;;;;;;;4.85;1.50;;;;;;;;;;5102039;28;20039;-59
2023/09/24 02:22:48;;;;;;;5.50;2.22;;;;;;;;;;5101133;28;20526;-59
2023/09/24 02:25:16;;;;;;;4.18;1.80;;;;;;;;;;5087741;28;20502;-60
2023/09/24 02:27:43;;;;;;;3.58;2.10;;;;;;;;;;5106669;28;20494;-60
2023/09/24 02:30:13;;;;;;;3.03;1.85;;;;;;;;;;5105348;28;20039;-59
2023/09/24 02:32:40;;;;;;;3.95;1.83;;;;;;;;;;5085248;28;20031;-59
2023/09/24 02:35:11;;;;;;;2.72;1.90;;;;;;;;;;5085349;28;20419;-59
2023/09/24 02:37:44;;;;;;;2.92;1.85;;;;;;;;;;5105525;28;20044;-60
2023/09/24 02:40:16;;;;;;;3.72;1.60;;;;;;;;;;5102727;28;20434;-60
2023/09/24 02:42:45;;;;;;;2.90;1.70;;;;;;;;;;5082849;28;20047;-60
2023/09/24 02:45:11;;;;;;;4.30;1.88;;;;;;;;;;5083267;28;20426;-60
2023/09/24 02:47:37;;;;;;;2.83;1.92;;;;;;;;;;5105724;28;20415;-60
2023/09/24 02:50:12;;;;;;;3.28;1.80;;;;;;;;;;5104433;28;20051;-60
2023/09/24 02:52:43;;;;;;;3.97;1.80;;;;;;;;;;5104101;28;20039;-60
2023/09/24 02:55:16;;;;;;;1.85;1.55;;;;;;;;;;5103809;28;20036;-60
2023/09/24 02:57:44;;;;;;;2.25;1.73;;;;;;;;;;5105604;28;20039;-60
2023/09/24 03:00:19;;;;;;;6.18;1.80;;;;;;;;;;5086491;28;20110;-60
2023/09/24 03:02:47;;;;;;;3.38;1.88;;;;;;;;;;5087699;28;20036;-62
2023/09/24 03:05:20;;;;;;;2.65;1.73;;;;;;;;;;5086475;28;20066;-61
2023/09/24 03:07:50;;;;;;;3.97;1.70;;;;;;;;;;5089170;28;20039;-61
2023/09/24 03:10:17;;;;;;;;;;;;;;;;;;5081848;28;20491;-61
2023/09/24 03:12:43;;;;;;;2.60;1.80;;;;;;;;;;5099674;28;19934;-60
2023/09/24 03:15:13;;;;;;;4.35;1.70;;;;;;;;;;5083040;28;20051;-61
2023/09/24 03:17:40;;;;;;;2.90;1.70;;;;;;;;;;5101655;28;20028;-61
2023/09/24 03:20:18;;;;;;;3.97;1.73;;;;;;;;;;5101744;28;20036;-60
2023/09/24 03:22:54;;;;;;;2.78;1.90;;;;;;;;;;5104386;28;20403;-60
2023/09/24 03:25:24;;;;;;;4.13;1.90;;;;;;;;;;5087927;28;20063;-61
2023/09/24 03:27:52;;;;;;;3.53;1.60;;;;;;;;;;5092913;28;20039;-60
2023/09/24 03:30:20;;;;;;;2.17;1.60;;;;;;;;;;5067893;28;20036;-61
2023/09/24 03:32:47;;;;;;;2.78;1.95;;;;;;;;;;5085897;28;20293;-61
2023/09/24 03:35:17;;;;;;;3.22;1.58;;;;;;;;;;5083663;28;20409;-60
2023/09/24 03:37:46;;;;;;;3.53;1.45;;;;;;;;;;5080479;28;20039;-60
2023/09/24 03:40:17;;;;;;;3.55;1.75;;;;;;;;;;5086581;28;20027;-59
2023/09/24 03:42:44;;;;;;;2.30;1.50;;;;;;;;;;5089254;28;20050;-60
2023/09/24 03:45:16;;;;;;;1.92;1.40;;;;;;;;;;5087411;28;20402;-59
2023/09/24 03:47:43;;;;;;;2.90;1.65;;;;;;;;;;5089330;28;20039;-60
2023/09/24 03:50:17;;;;;;;2.83;1.50;;;;;;;;;;5089447;28;20395;-60
2023/09/24 03:52:44;;;;;;;2.30;1.45;;;;;;;;;;5089072;28;20048;-60
2023/09/24 03:55:11;;;;;;;2.05;1.45;;;;;;;;;;5091512;28;20047;-60
2023/09/24 03:57:39;;;;;;;1.90;1.50;;;;;;;;;;5088457;28;20030;-60
2023/09/24 04:00:16;;;;;;;1.80;1.48;;;;;;;;;;5091182;28;20409;-60
2023/09/24 04:02:47;;;;;;;1.90;1.60;;;;;;;;;;5086294;28;20398;-60
2023/09/24 04:05:17;;;;;;;2.15;1.50;;;;;;;;;;5084509;28;20058;-60
2023/09/24 04:07:47;;;;;;;;;;;;;;;;;;5094401;28;20517;-60
2023/09/24 04:10:14;;;;;;;2.60;1.50;;;;;;;;;;5090396;28;19927;-60
2023/09/24 04:12:42;;;;;;;2.78;1.98;;;;;;;;;;5106536;28;20043;-61
2023/09/24 04:15:10;;;;;;;6.70;1.67;;;;;;;;;;5102538;28;20055;-60
2023/09/24 04:17:41;;;;;;;2.97;1.65;;;;;;;;;;5108123;28;20043;-60
2023/09/24 04:20:14;;;;;;;2.33;1.60;;;;;;;;;;5105211;28;20032;-60
2023/09/24 04:22:40;;;;;;;1.38;1.27;;;;;;;;;;5107924;28;20043;-60
2023/09/24 04:25:06;;;;;;;3.65;1.40;;;;;;;;;;5106063;28;20028;-60
2023/09/24 04:27:32;;;;;;;3.33;1.40;;;;;;;;;;5108456;28;20505;-59
2023/09/24 04:29:58;;;;;;;2.88;1.52;;;;;;;;;;5107313;28;20088;-58
2023/09/24 04:32:25;;;;;;;3.40;1.85;;;;;;;;;;5105623;28;20044;-59
2023/09/24 04:34:55;;;;;;;1.50;1.40;;;;;;;;;;5103645;28;20043;-60
2023/09/24 04:37:21;;;;;;;;;;;;;;;;;;5101999;28;20055;-59
2023/09/24 04:39:48;;;;;;;4.22;2.03;;;;;;;;;;5106279;28;20051;-59
2023/09/24 04:42:15;;;;;;;2.90;1.98;;;;;;;;;;5085398;28;20046;-60
2023/09/24 04:44:42;;;;;;;1.95;1.60;;;;;;;;;;5102039;28;20527;-60
2023/09/24 04:47:08;;;;;;;3.83;1.65;;;;;;;;;;5086633;28;20036;-60
2023/09/24 04:49:34;;;;;;;4.22;1.80;;;;;;;;;;5089889;28;20039;-60
2023/09/24 04:52:01;;;;;;;2.15;1.52;;;;;;;;;;5088626;28;20415;-60
2023/09/24 04:54:27;;;;;;;1.98;1.40;;;;;;;;;;5105270;28;20427;-60
2023/09/24 04:56:53;;;;;;;2.45;1.60;;;;;;;;;;5108685;28;20028;-59
2023/09/24 04:59:20;;;;;;;3.60;1.60;;;;;;;;;;5088930;28;20031;-60
2023/09/24 05:01:46;;;;;;;3.45;1.58;;;;;;;;;;5104411;28;20495;-59
2023/09/24 05:04:12;;;;;;;3.03;1.40;;;;;;;;;;5101969;28;20035;-59
2023/09/24 05:06:38;;;;;;;2.88;1.50;;;;;;;;;;5083417;28;20036;-60
2023/09/24 05:09:04;;;;;;;4.63;1.83;;;;;;;;;;5106004;28;20384;-60
2023/09/24 05:11:30;;;;;;;3.45;1.58;;;;;;;;;;5103899;28;20031;-59
2023/09/24 05:13:56;;;;;;;1.88;1.35;;;;;;;;;;5102985;28;20051;-60
2023/09/24 05:16:22;;;;;;;2.45;1.50;;;;;;;;;;5108536;28;20038;-60
2023/09/24 05:18:48;;;;;;;2.50;1.48;;;;;;;;;;5105819;28;20054;-59
2023/09/24 05:21:16;;;;;;;2.97;1.40;;;;;;;;;;5106951;28;20047;-59
2023/09/24 05:23:43;;;;;;;3.10;1.40;;;;;;;;;;5105302;28;20050;-59
2023/09/24 05:26:13;;;;;;;6.10;1.60;;;;;;;;;;5106113;28;20096;-59
2023/09/24 05:28:40;;;;;;;2.15;1.50;;;;;;;;;;5105985;28;20218;-59
2023/09/24 05:31:06;;;;;;;2.85;1.48;;;;;;;;;;5105777;28;20038;-61
2023/09/24 05:33:33;;;;;;;3.28;2.13;;;;;;;;;;5103000;28;20419;-59
2023/09/24 05:35:59;;;;;;;2.63;1.83;;;;;;;;;;5100893;28;20048;-59
2023/09/24 05:38:29;;;;;;;3.35;1.90;;;;;;;;;;5106186;28;20740;-60
2023/09/24 05:40:56;;;;;;;3.72;1.90;;;;;;;;;;5106314;28;20036;-60
2023/09/24 05:43:22;;;;;;;4.32;1.70;;;;;;;;;;5084408;28;20503;-60
2023/09/24 05:45:50;;;;;;;2.45;1.80;;;;;;;;;;5104879;28;20040;-59
2023/09/24 05:48:17;;;;;;;3.38;1.67;;;;;;;;;;5106518;28;20043;-60
2023/09/24 05:50:43;;;;;;;3.03;2.00;;;;;;;;;;5106731;28;20035;-60
2023/09/24 05:53:13;;;;;;;4.78;2.10;;;;;;;;;;5105578;28;20024;-60
2023/09/24 05:55:39;;;;;;;;;;;;;;;;;;5105511;28;20035;-60
2023/09/24 05:58:06;;;;;;;2.53;1.55;;;;;;;;;;5104291;28;19911;-60
2023/09/24 06:00:36;;;;;;;3.85;2.00;;;;;;;;;;5104250;28;20043;-60
2023/09/24 06:03:02;;;;;;;3.35;2.22;;;;;;;;;;5102573;28;20109;-60
2023/09/24 06:05:28;;;;;;;3.08;2.05;;;;;;;;;;5100266;28;20402;-60
2023/09/24 06:07:55;;;;;;;2.95;2.15;;;;;;;;;;5103402;28;20039;-60
2023/09/24 06:10:23;;;;;;;3.65;1.70;;;;;;;;;;5102991;28;20035;-60
2023/09/24 06:12:49;;;;;;;2.85;1.80;;;;;;;;;;5098554;28;20048;-60
2023/09/24 06:15:17;;;;;;;2.90;2.00;;;;;;;;;;5106444;28;20039;-60
2023/09/24 06:17:43;;;;;;;7.65;1.70;;;;;;;;;;5107052;28;20400;-60
2023/09/24 06:20:10;;;;;;;4.00;1.83;;;;;;;;;;5106255;28;20039;-60
2023/09/24 06:22:37;;;;;;;2.47;1.77;;;;;;;;;;5088979;28;20039;-60
2023/09/24 06:25:03;;;;;;;4.15;1.90;;;;;;;;;;5102409;28;20028;-60
2023/09/24 06:27:30;;;;;;;4.25;2.15;;;;;;;;;;5090185;28;20501;-60
2023/09/24 06:29:56;;;;;;;4.35;2.08;;;;;;;;;;5104242;28;20066;-60
2023/09/24 06:32:22;;;;;;;2.35;1.83;;;;;;;;;;5099054;28;20418;-60
2023/09/24 06:34:48;;;;;;;4.88;2.10;;;;;;;;;;5099845;28;20499;-60
2023/09/24 06:37:15;;;;;;;3.33;2.17;;;;;;;;;;5101622;28;20044;-60
2023/09/24 06:39:42;;;;;;;4.35;2.05;;;;;;;;;;5106512;28;20043;-59
2023/09/24 06:42:08;;;;;;;6.68;2.35;;;;;;;;;;5101868;28;20058;-60
2023/09/24 06:44:34;;;;;;;5.03;2.80;;;;;;;;;;5066227;28;20024;-61
2023/09/24 06:47:00;;;;;;;3.78;2.30;;;;;;;;;;5106032;28;20040;-60
2023/09/24 06:49:27;;;;;;;5.68;3.10;;;;;;;;;;5106194;28;20031;-60
2023/09/24 06:51:53;;;;;;;8.65;2.85;;;;;;;;;;5105021;28;20548;-61
2023/09/24 06:54:20;;;;;;;6.35;3.10;;;;;;;;;;5101029;28;20051;-60
2023/09/24 06:56:46;;;;;;;4.18;2.90;;;;;;;;;;5087478;28;20051;-59
2023/09/24 06:59:12;;;;;;;4.15;2.80;;;;;;;;;;5103701;28;20044;-60
2023/09/24 07:01:38;;;;;;;5.13;2.88;;;;;;;;;;5106817;28;20036;-61
2023/09/24 07:04:05;;;;;;;7.30;3.65;;;;;;;;;;5100696;28;20039;-60
2023/09/24 07:06:32;;;;;;;5.05;2.92;;;;;;;;;;5099541;28;20032;-60
2023/09/24 07:08:58;;;;;;;6.75;2.70;;;;;;;;;;5104460;28;20070;-60
2023/09/24 07:11:28;;;;;;;4.50;3.00;;;;;;;;;;5102496;28;20042;-60
2023/09/24 07:13:55;;;;;;;5.70;2.80;;;;;;;;;;5084652;28;20043;-60
2023/09/24 07:16:22;;;;;;;4.38;2.88;;;;;;;;;;5108775;28;20038;-61
2023/09/24 07:18:52;;;;;;;4.53;2.72;;;;;;;;;;5090937;28;20039;-60
2023/09/24 07:21:20;;;;;;;2.75;2.15;;;;;;;;;;5108598;28;20034;-61
2023/09/24 07:23:51;;;;;;;4.45;2.60;;;;;;;;;;5106612;28;20020;-60
2023/09/24 07:26:18;;;;;;;5.80;2.92;;;;;;;;;;5105671;28;20063;-60
2023/09/24 07:28:44;;;;;;;15.48;9.25;;;;;;;;;;5109659;28;20043;-60
2023/09/24 07:31:21;;;;;;;11.63;6.18;;;;;;;;;;5107120;28;20036;-60
2023/09/24 07:33:55;;;;;;;9.50;4.43;;;;;;;;;;5105212;28;20036;-60
2023/09/24 07:36:21;;;;;;;10.85;5.28;;;;;;;;;;5105414;28;20058;-60
2023/09/24 07:38:51;;;;;;;7.95;4.05;;;;;;;;;;5105643;28;20062;-61
2023/09/24 07:41:18;;;;;;;7.30;3.60;;;;;;;;;;5104002;28;20402;-60
2023/09/24 07:43:44;;;;;;;6.05;3.40;;;;;;;;;;5090236;28;20426;-60
2023/09/24 07:46:14;;;;;;;6.20;3.45;;;;;;;;;;5106193;28;20051;-60
2023/09/24 07:48:47;;;;;;;6.55;3.92;;;;;;;;;;5087638;28;20062;-60
2023/09/24 07:51:16;;;;;;;7.55;4.25;;;;;;;;;;5107017;28;20040;-60
2023/09/24 07:53:44;;;;;;;17.38;8.68;;;;;;;;;;5094556;28;20050;-60
2023/09/24 07:56:10;;;;;;;17.95;8.43;;;;;;;;;;5106819;28;20035;-60
2023/09/24 07:58:38;;;;;;;11.70;6.78;;;;;;;;;;5107862;28;20031;-60
2023/09/24 08:01:06;;;;;;;8.93;4.75;;;;;;;;;;5103396;28;20048;-60
2023/09/24 08:03:36;;;;;;;7.35;4.55;;;;;;;;;;5101558;28;20605;-59
2023/09/24 08:06:04;;;;;;;5.93;3.97;;;;;;;;;;5103592;28;20042;-59
2023/09/24 08:08:31;;;;;;;5.95;4.03;;;;;;;;;;5108904;28;20030;-59
2023/09/24 08:10:58;;;;;;;6.72;4.13;;;;;;;;;;5105451;28;20059;-59
2023/09/24 08:13:24;;;;;;;7.75;3.60;;;;;;;;;;5108567;28;20200;-59
2023/09/24 08:15:51;;;;;;;5.55;3.60;;;;;;;;;;5109038;28;20046;-59
2023/09/24 08:18:17;;;;;;;6.68;3.65;;;;;;;;;;5108495;28;20387;-59
2023/09/24 08:20:44;;;;;;;7.72;3.08;;;;;;;;;;5106662;28;20028;-59
2023/09/24 08:23:12;;;;;;;6.13;3.53;;;;;;;;;;5103853;28;20043;-59
2023/09/24 08:25:41;;;;;;;4.18;2.47;;;;;;;;;;5107424;28;20399;-59
2023/09/24 08:28:09;;;;;;;3.50;2.60;;;;;;;;;;5104808;28;20085;-59
2023/09/24 08:30:36;;;;;;;4.70;3.00;;;;;;;;;;5106401;28;20047;-59
2023/09/24 08:33:04;;;;;;;4.00;2.75;;;;;;;;;;5085940;28;20054;-59
2023/09/24 08:35:30;;;;;;;5.90;2.88;;;;;;;;;;5107286;28;20044;-59
2023/09/24 08:37:56;;;;;;;6.53;2.83;;;;;;;;;;5103912;28;20047;-60
2023/09/24 08:40:27;;;;;;;5.18;2.60;;;;;;;;;;5107149;28;20036;-59
2023/09/24 08:42:55;;;;;;;5.15;3.13;;;;;;;;;;5107574;28;20525;-59
2023/09/24 08:45:26;;;;;;;4.68;3.10;;;;;;;;;;5089297;28;20046;-61
2023/09/24 08:47:52;;;;;;;4.45;2.40;;;;;;;;;;5108226;28;20035;-59
2023/09/24 08:50:18;;;;;;;3.58;2.58;;;;;;;;;;5103695;28;20036;-60
2023/09/24 08:52:46;;;;;;;4.22;2.80;;;;;;;;;;5105508;28;20047;-60
2023/09/24 08:55:13;;;;;;;5.70;2.70;;;;;;;;;;5103869;28;20043;-61
2023/09/24 08:57:42;;;;;;;8.18;3.25;;;;;;;;;;5091486;28;20036;-59
2023/09/24 09:00:11;;;;;;;5.07;3.10;;;;;;;;;;5101785;28;20059;-58
2023/09/24 09:02:41;;;;;;;4.68;2.53;;;;;;;;;;5105161;28;20044;-59
2023/09/24 09:05:19;;;;;;;4.50;2.60;;;;;;;;;;5107986;28;20043;-59
2023/09/24 09:08:04;;;;;;;4.65;2.30;;;;;;;;;;5106305;28;20038;-59
2023/09/24 09:10:32;;;;;;;3.65;2.10;;;;;;;;;;5103441;28;20051;-59
2023/09/24 09:13:18;;;;;;;4.43;2.53;;;;;;;;;;5091952;28;20032;-59
2023/09/24 09:15:46;;;;;;;4.50;2.17;;;;;;;;;;5105639;28;20040;-60
2023/09/24 09:18:26;;;;;;;3.10;1.90;;;;;;;;;;5105404;28;20027;-60
2023/09/24 09:20:59;;;;;;;3.83;1.95;;;;;;;;;;5103301;28;20050;-59
2023/09/24 09:23:43;;;;;;;4.65;1.98;;;;;;;;;;5103818;28;20038;-59
2023/09/24 09:26:09;;;;;;;4.22;1.95;;;;;;;;;;5106910;28;20532;-59
2023/09/24 09:28:36;;;;;;;4.93;2.20;;;;;;;;;;5104561;28;20046;-59
2023/09/24 09:31:07;;;;;;;4.45;2.30;;;;;;;;;;5103691;28;20038;-59
2023/09/24 09:33:35;;;;;;;5.40;2.03;;;;;;;;;;5099704;28;20055;-59
2023/09/24 09:36:02;;;;;;;2.60;1.58;;;;;;;;;;5084004;28;20054;-59
2023/09/24 09:38:28;;;;;;;3.13;1.70;;;;;;;;;;5102160;28;20035;-60
2023/09/24 09:40:56;;;;;;;5.78;2.00;;;;;;;;;;5090570;28;20044;-59
2023/09/24 09:43:27;;;;;;;6.25;2.65;;;;;;;;;;5088700;28;20043;-58
2023/09/24 09:45:55;;;;;;;4.82;1.95;;;;;;;;;;5105314;28;20032;-59
2023/09/24 09:48:28;;;;;;;4.20;1.90;;;;;;;;;;5104346;28;20047;-59
2023/09/24 09:50:59;;;;;;;4.25;1.70;;;;;;;;;;5104622;28;20525;-59
2023/09/24 09:53:33;;;;;;;3.70;1.85;;;;;;;;;;5103122;28;20046;-59
2023/09/24 09:56:04;;;;;;;4.35;1.85;;;;;;;;;;5100078;28;20036;-59
2023/09/24 09:58:36;;;;;;;5.00;1.85;;;;;;;;;;5107611;28;20024;-59
2023/09/24 10:01:03;;;;;;;4.45;2.00;;;;;;;;;;5103590;28;20503;-59
2023/09/24 10:03:33;;;;;;;4.00;1.60;;;;;;;;;;5104743;28;20051;-59
2023/09/24 10:06:01;;;;;;;6.45;2.20;;;;;;;;;;5105720;28;20043;-59
2023/09/24 10:08:47;;;;;;;2.28;1.40;;;;;;;;;;5106822;28;20534;-59
2023/09/24 10:11:32;;;;;;;4.90;1.83;;;;;;;;;;5102900;28;20422;-59
2023/09/24 10:13:59;;;;;;;4.70;1.80;;;;;;;;;;5102842;28;20046;-59
2023/09/24 10:16:25;;;;;;;3.22;1.50;;;;;;;;;;5103958;28;21413;-59
2023/09/24 10:18:58;;;;;;;2.85;1.60;;;;;;;;;;5086250;28;20047;-59
2023/09/24 10:21:33;;;;;;;6.32;1.85;;;;;;;;;;5104300;28;20391;-59
2023/09/24 10:24:02;;;;;;;3.30;1.77;;;;;;;;;;5102640;28;20042;-60
2023/09/24 10:27:06;;;;;;;3.50;1.35;;;;;;;;;;5103455;28;20027;-59
2023/09/24 10:29:55;;;;;;;4.63;1.52;;;;;;;;;;5099146;28;20035;-59
2023/09/24 10:32:23;;;;;;;3.67;1.50;;;;;;;;;;5099750;28;20540;-59
2023/09/24 10:34:54;;;;;;;2.92;1.40;;;;;;;;;;5101166;28;20028;-59
2023/09/24 10:37:28;;;;;;;3.15;1.48;;;;;;;;;;5107896;28;20391;-59
2023/09/24 10:40:09;;;;;;;3.42;1.40;;;;;;;;;;5105538;28;20044;-59
2023/09/24 10:42:39;;;;;;;3.72;1.42;;;;;;;;;;5086832;28;20426;-61
2023/09/24 10:45:05;;;;;;;3.97;1.50;;;;;;;;;;5104306;28;20031;-61
2023/09/24 10:47:39;;;;;;;4.05;1.48;;;;;;;;;;5102830;28;20027;-59
2023/09/24 10:50:13;;;;;;;3.20;1.55;;;;;;;;;;5083502;28;20048;-59
2023/09/24 10:52:51;;;;;;;3.45;1.70;;;;;;;;;;5071182;28;20038;-60
2023/09/24 10:55:39;;;;;;;4.03;2.00;;;;;;;;;;5083551;28;20031;-60
2023/09/24 10:58:13;;;;;;;4.15;1.58;;;;;;;;;;5104886;28;20549;-60
2023/09/24 11:00:42;;;;;;;5.53;1.63;;;;;;;;;;5099170;28;20044;-60
2023/09/24 11:03:11;;;;;;;3.70;1.73;;;;;;;;;;5103463;28;20062;-60
2023/09/24 11:05:40;;;;;;;2.88;1.50;;;;;;;;;;5104927;28;20050;-61
2023/09/24 11:08:06;;;;;;;2.15;1.33;;;;;;;;;;5100796;28;20048;-60
2023/09/24 11:10:33;;;;;;;3.05;1.48;;;;;;;;;;5102741;28;20040;-59
2023/09/24 11:13:01;;;;;;;3.10;1.60;;;;;;;;;;5106676;28;20035;-60
2023/09/24 11:15:30;;;;;;;5.25;1.35;;;;;;;;;;5102247;28;20039;-60
2023/09/24 11:17:57;;;;;;;2.65;1.35;;;;;;;;;;5104229;28;20046;-60
2023/09/24 11:20:24;;;;;;;3.40;1.52;;;;;;;;;;5101733;28;20036;-60
2023/09/24 11:22:56;;;;;;;3.13;1.13;;;;;;;;;;5106326;28;20039;-60
2023/09/24 11:25:24;;;;;;;2.97;1.20;;;;;;;;;;5100535;28;20035;-60
2023/09/24 11:27:52;;;;;;;3.20;1.23;;;;;;;;;;5099421;28;20035;-60
2023/09/24 11:30:21;;;;;;;4.20;1.77;;;;;;;;;;5100487;28;20040;-60
2023/09/24 11:32:50;;;;;;;4.07;2.03;;;;;;;;;;5081468;28;20051;-60
2023/09/24 11:35:21;;;;;;;2.28;1.17;;;;;;;;;;5103641;28;20067;-59
2023/09/24 11:37:59;;;;;;;2.13;1.15;;;;;;;;;;5104648;28;20032;-60
2023/09/24 11:40:32;;;;;;;4.13;1.33;;;;;;;;;;5104485;28;20435;-60
2023/09/24 11:43:16;;;;;;;4.93;1.40;;;;;;;;;;5102451;28;20042;-60
2023/09/24 11:45:49;;;;;;;2.78;1.17;;;;;;;;;;5088065;28;20036;-60
2023/09/24 11:48:16;;;;;;;3.67;1.30;;;;;;;;;;5102718;28;20039;-60
2023/09/24 11:50:45;;;;;;;3.08;1.40;;;;;;;;;;5085524;28;20054;-59
2023/09/24 11:53:12;;;;;;;;;;;;;;;;;;5081227;28;20040;-59
2023/09/24 11:55:38;;;;;;;2.95;1.67;;;;;;;;;;5102721;28;20275;-59
2023/09/24 11:58:05;;;;;;;2.17;1.40;;;;;;;;;;5102286;28;20388;-59
2023/09/24 12:00:34;;;;;;;2.95;1.30;;;;;;;;;;5104512;28;20034;-58
2023/09/24 12:03:01;;;;;;;3.22;1.30;;;;;;;;;;5086295;28;20040;-59
2023/09/24 12:05:28;;;;;;;3.53;1.48;;;;;;;;;;5106171;28;20380;-60
2023/09/24 12:07:54;;;;;;;2.25;1.30;;;;;;;;;;5110714;28;20417;-60
2023/09/24 12:10:21;;;;;;;2.92;1.27;;;;;;;;;;5107986;28;20058;-60
2023/09/24 12:12:49;;;;;;;2.88;1.30;;;;;;;;;;5106816;28;20036;-59
2023/09/24 12:15:17;;;;;;;3.22;1.30;;;;;;;;;;5104024;28;20027;-59
2023/09/24 12:17:47;;;;;;;3.17;1.10;;;;;;;;;;5109367;28;20045;-59
2023/09/24 12:20:14;;;;;;;4.93;1.50;;;;;;;;;;5102511;28;20285;-60
2023/09/24 12:22:41;;;;;;;3.25;1.30;;;;;;;;;;5107239;28;20071;-60
2023/09/24 12:25:10;;;;;;;2.40;1.30;;;;;;;;;;5103636;28;20037;-60
2023/09/24 12:27:37;;;;;;;3.10;1.23;;;;;;;;;;5106451;28;20039;-61
2023/09/24 12:30:05;;;;;;;3.95;1.33;;;;;;;;;;5106337;28;20286;-62
2023/09/24 12:32:32;;;;;;;4.03;1.38;;;;;;;;;;5103573;28;20051;-61
2023/09/24 12:34:58;;;;;;;2.95;1.33;;;;;;;;;;5107140;28;20038;-61
2023/09/24 12:37:24;;;;;;;6.68;1.52;;;;;;;;;;5105605;28;20048;-60
2023/09/24 12:39:50;;;;;;;4.03;1.27;;;;;;;;;;5107612;28;20035;-60
2023/09/24 12:42:17;;;;;;;3.67;1.40;;;;;;;;;;5106234;28;20035;-60
2023/09/24 12:44:43;;;;;;;2.67;1.15;;;;;;;;;;5086478;28;20510;-60
2023/09/24 12:47:09;;;;;;;4.90;1.55;;;;;;;;;;5105661;28;20051;-60
2023/09/24 12:49:35;;;;;;;6.68;1.30;;;;;;;;;;5103617;28;20533;-59
2023/09/24 12:52:01;;;;;;;5.38;1.40;;;;;;;;;;5103877;28;20038;-59
2023/09/24 12:54:27;;;;;;;5.68;1.50;;;;;;;;;;5100894;28;20055;-60
2023/09/24 12:56:53;;;;;;;3.75;1.30;;;;;;;;;;5105482;28;20072;-60
2023/09/24 12:59:19;;;;;;;3.00;1.27;;;;;;;;;;5107583;28;20028;-60
2023/09/24 13:01:46;;;;;;;3.08;1.40;;;;;;;;;;5106154;28;20046;-60
2023/09/24 13:04:13;;;;;;;3.33;1.48;;;;;;;;;;5103495;28;20048;-60
2023/09/24 13:06:43;;;;;;;2.53;1.05;;;;;;;;;;5106534;28;20055;-60
2023/09/24 13:09:10;;;;;;;2.97;1.23;;;;;;;;;;5107752;28;20402;-60
2023/09/24 13:11:36;;;;;;;3.45;1.40;;;;;;;;;;5103793;28;20031;-60
2023/09/24 13:14:02;;;;;;;3.47;1.30;;;;;;;;;;5104517;28;20059;-59
2023/09/24 13:16:28;;;;;;;4.18;1.65;;;;;;;;;;5104319;28;20040;-60
2023/09/24 13:18:54;;;;;;;3.15;1.50;;;;;;;;;;5099500;28;20048;-60
2023/09/24 13:21:20;;;;;;;4.90;1.52;;;;;;;;;;5102303;28;20561;-60
2023/09/24 13:23:46;;;;;;;5.38;1.58;;;;;;;;;;5101720;28;20043;-60
2023/09/24 13:26:12;;;;;;;5.20;1.92;;;;;;;;;;5099476;28;20557;-60
2023/09/24 13:28:39;;;;;;;4.90;1.77;;;;;;;;;;5104800;28;20474;-60
2023/09/24 13:31:06;;;;;;;3.30;1.30;;;;;;;;;;5103980;28;20035;-60
2023/09/24 13:33:32;;;;;;;4.80;1.88;;;;;;;;;;5099444;28;20038;-59
2023/09/24 13:35:58;;;;;;;6.55;1.85;;;;;;;;;;5106979;28;20078;-60
2023/09/24 13:38:25;;;;;;;3.55;1.80;;;;;;;;;;5108230;28;20042;-60
2023/09/24 13:40:51;;;;;;;4.65;1.90;;;;;;;;;;5106554;28;20038;-60
2023/09/24 13:43:17;;;;;;;4.43;1.60;;;;;;;;;;5103817;27;20396;-60
2023/09/24 13:45:46;;;;;;;4.13;2.05;;;;;;;;;;5104892;28;20024;-59
2023/09/24 13:48:15;;;;;;;4.82;1.52;;;;;;;;;;5104217;28;20047;-59
2023/09/24 13:50:51;;;;;;;3.47;1.75;;;;;;;;;;5105868;28;20087;-61
2023/09/24 13:53:17;;;;;;;3.08;1.52;;;;;;;;;;5100114;28;20094;-61
2023/09/24 13:55:44;;;;;;;2.72;1.67;;;;;;;;;;5107210;28;20047;-61
2023/09/24 13:58:12;;;;;;;4.05;1.70;;;;;;;;;;5106668;28;20445;-61
2023/09/24 14:00:38;;;;;;;4.22;1.70;;;;;;;;;;5102820;28;20027;-60
2023/09/24 14:03:05;;;;;;;3.33;1.63;;;;;;;;;;5090969;28;20437;-61
2023/09/24 14:05:31;;;;;;;3.17;1.70;;;;;;;;;;5081768;28;20035;-61
2023/09/24 14:12:17;;;;;;;5.18;2.35;;;;;;;;;;5100897;28;20042;-60
2023/09/24 14:13:31;;;;;;;5.93;2.05;;;;;;;;;;5102180;28;20367;-60
2023/09/24 14:15:57;;;;;;;7.55;2.13;;;;;;;;;;5103758;28;20047;-61
2023/09/24 14:18:23;;;;;;;5.18;1.92;;;;;;;;;;5101884;28;20058;-60
2023/09/24 14:20:49;;;;;;;3.38;1.90;;;;;;;;;;5100231;28;20050;-61
2023/09/24 14:23:16;;;;;;;4.05;2.00;;;;;;;;;;5074156;28;20388;-61
2023/09/24 14:25:43;;;;;;;3.30;1.70;;;;;;;;;;5102561;28;20031;-60
2023/09/24 14:28:10;;;;;;;4.07;1.95;;;;;;;;;;5106521;28;20055;-60
2023/09/24 14:30:38;;;;;;;5.20;2.42;;;;;;;;;;5103101;28;20038;-61
2023/09/24 14:33:06;;;;;;;6.55;2.42;;;;;;;;;;5106531;28;20031;-61
2023/09/24 14:35:32;;;;;;;5.63;1.90;;;;;;;;;;5084865;28;20051;-61
2023/09/24 14:37:58;;;;;;;4.88;2.00;;;;;;;;;;5103143;28;20517;-62
2023/09/24 14:40:24;;;;;;;4.85;2.95;;;;;;;;;;5102031;28;20051;-61
2023/09/24 14:42:51;;;;;;;5.18;2.10;;;;;;;;;;5087270;28;20036;-61
2023/09/24 14:45:17;;;;;;;4.53;2.40;;;;;;;;;;5084646;28;20051;-61
2023/09/24 14:47:43;;;;;;;7.70;2.38;;;;;;;;;;5105208;28;20033;-61
2023/09/24 14:50:09;;;;;;;5.50;2.17;;;;;;;;;;5101186;28;20521;-61
2023/09/24 14:52:35;;;;;;;5.28;2.00;;;;;;;;;;5104349;28;20050;-59
2023/09/24 14:55:02;;;;;;;5.03;2.10;;;;;;;;;;5105333;28;20398;-61
2023/09/24 14:57:28;;;;;;;4.53;2.30;;;;;;;;;;5086842;28;20426;-60